sensor_id;sensor_type;location;lat;lon;timestamp;pressure;altitude;pressure_sealevel;temperature
24714;BMP280;12820;51.580;5.010;2024-03-22T00:02:45;102124.00;;;13.99
24714;BMP280;12820;51.580;5.010;2024-03-22T00:07:46;102109.66;;;14.00
24714;BMP280;12820;51.580;5.010;2024-03-22T00:12:49;102108.00;;;14.00
24714;BMP280;12820;51.580;5.010;2024-03-22T00:17:50;102103.72;;;14.05
24714;BMP280;12820;51.580;5.010;2024-03-22T00:22:51;102091.94;;;14.05
24714;BMP280;12820;51.580;5.010;2024-03-22T00:27:53;102081.81;;;14.07
24714;BMP280;12820;51.580;5.010;2024-03-22T00:32:54;102077.59;;;14.07
24714;BMP280;12820;51.580;5.010;2024-03-22T00:37:55;102076.75;;;14.08
24714;BMP280;12820;51.580;5.010;2024-03-22T00:42:56;102052.28;;;14.12
24714;BMP280;12820;51.580;5.010;2024-03-22T00:47:57;102032.06;;;14.10
24714;BMP280;12820;51.580;5.010;2024-03-22T00:52:59;102017.72;;;14.11
24714;BMP280;12820;51.580;5.010;2024-03-22T00:58:00;102018.56;;;14.13
24714;BMP280;12820;51.580;5.010;2024-03-22T01:03:02;102000.03;;;14.11
24714;BMP280;12820;51.580;5.010;2024-03-22T01:08:03;101994.97;;;14.11
24714;BMP280;12820;51.580;5.010;2024-03-22T01:13:06;101998.34;;;14.10
24714;BMP280;12820;51.580;5.010;2024-03-22T01:18:07;101999.22;;;14.06
24714;BMP280;12820;51.580;5.010;2024-03-22T01:23:08;101993.34;;;14.04
24714;BMP280;12820;51.580;5.010;2024-03-22T01:28:09;101986.63;;;14.00
24714;BMP280;12820;51.580;5.010;2024-03-22T01:33:10;101980.78;;;13.97
24714;BMP280;12820;51.580;5.010;2024-03-22T01:38:12;101970.78;;;13.88
24714;BMP280;12820;51.580;5.010;2024-03-22T01:43:13;101980.88;;;13.86
24714;BMP280;12820;51.580;5.010;2024-03-22T01:48:15;101965.78;;;13.81
24714;BMP280;12820;51.580;5.010;2024-03-22T01:53:16;101967.47;;;13.76
24714;BMP280;12820;51.580;5.010;2024-03-22T01:58:18;101986.88;;;13.72
24714;BMP280;12820;51.580;5.010;2024-03-22T02:03:19;101993.66;;;13.66
24714;BMP280;12820;51.580;5.010;2024-03-22T02:08:21;101992.00;;;13.65
24714;BMP280;12820;51.580;5.010;2024-03-22T02:13:22;101996.22;;;13.62
24714;BMP280;12820;51.580;5.010;2024-03-22T02:18:23;101995.44;;;13.60
24714;BMP280;12820;51.580;5.010;2024-03-22T02:23:35;101981.13;;;13.59
24714;BMP280;12820;51.580;5.010;2024-03-22T02:28:36;101976.06;;;13.60
24714;BMP280;12820;51.580;5.010;2024-03-22T02:33:37;101955.00;;;13.58
24714;BMP280;12820;51.580;5.010;2024-03-22T02:38:39;101939.84;;;13.58
24714;BMP280;12820;51.580;5.010;2024-03-22T02:43:40;101928.94;;;13.56
24714;BMP280;12820;51.580;5.010;2024-03-22T02:48:42;101933.13;;;13.57
24714;BMP280;12820;51.580;5.010;2024-03-22T02:53:43;101928.06;;;13.57
24714;BMP280;12820;51.580;5.010;2024-03-22T02:58:44;101924.75;;;13.55
24714;BMP280;12820;51.580;5.010;2024-03-22T03:03:46;101912.94;;;13.53
24714;BMP280;12820;51.580;5.010;2024-03-22T03:08:47;101901.22;;;13.50
24714;BMP280;12820;51.580;5.010;2024-03-22T03:13:48;101897.00;;;13.51
24714;BMP280;12820;51.580;5.010;2024-03-22T03:18:49;101897.84;;;13.49
24714;BMP280;12820;51.580;5.010;2024-03-22T03:23:51;101892.84;;;13.44
24714;BMP280;12820;51.580;5.010;2024-03-22T03:28:53;101900.41;;;13.46
24714;BMP280;12820;51.580;5.010;2024-03-22T03:33:56;101882.81;;;13.37
24714;BMP280;12820;51.580;5.010;2024-03-22T03:38:57;101871.03;;;13.36
24714;BMP280;12820;51.580;5.010;2024-03-22T03:43:58;101867.69;;;13.34
24714;BMP280;12820;51.580;5.010;2024-03-22T03:49:00;101855.06;;;13.34
24714;BMP280;12820;51.580;5.010;2024-03-22T03:54:01;101855.88;;;13.33
24714;BMP280;12820;51.580;5.010;2024-03-22T03:59:03;101859.28;;;13.32
24714;BMP280;12820;51.580;5.010;2024-03-22T04:04:04;101848.31;;;13.33
24714;BMP280;12820;51.580;5.010;2024-03-22T04:09:05;101845.00;;;13.31
24714;BMP280;12820;51.580;5.010;2024-03-22T04:14:07;101844.16;;;13.29
24714;BMP280;12820;51.580;5.010;2024-03-22T04:19:08;101849.19;;;13.29
24714;BMP280;12820;51.580;5.010;2024-03-22T04:24:09;101846.72;;;13.28
24714;BMP280;12820;51.580;5.010;2024-03-22T04:29:11;101859.34;;;13.26
24714;BMP280;12820;51.580;5.010;2024-03-22T04:34:12;101866.06;;;13.24
24714;BMP280;12820;51.580;5.010;2024-03-22T04:39:13;101846.72;;;13.23
24714;BMP280;12820;51.580;5.010;2024-03-22T04:44:15;101839.16;;;13.23
24714;BMP280;12820;51.580;5.010;2024-03-22T04:49:16;101837.50;;;13.21
24714;BMP280;12820;51.580;5.010;2024-03-22T04:54:17;101838.34;;;13.20
24714;BMP280;12820;51.580;5.010;2024-03-22T04:59:18;101830.81;;;13.18
24714;BMP280;12820;51.580;5.010;2024-03-22T05:04:20;101832.50;;;13.16
24714;BMP280;12820;51.580;5.010;2024-03-22T05:09:21;101832.50;;;13.15
24714;BMP280;12820;51.580;5.010;2024-03-22T05:14:22;101829.13;;;13.14
24714;BMP280;12820;51.580;5.010;2024-03-22T05:19:23;101822.44;;;13.14
24714;BMP280;12820;51.580;5.010;2024-03-22T05:24:25;101823.28;;;13.13
24714;BMP280;12820;51.580;5.010;2024-03-22T05:29:26;101820.72;;;13.15
24714;BMP280;12820;51.580;5.010;2024-03-22T05:34:27;101821.59;;;13.13
24714;BMP280;12820;51.580;5.010;2024-03-22T05:39:28;101816.56;;;13.12
24714;BMP280;12820;51.580;5.010;2024-03-22T05:44:29;101813.19;;;13.11
24714;BMP280;12820;51.580;5.010;2024-03-22T05:49:30;101812.34;;;13.11
24714;BMP280;12820;51.580;5.010;2024-03-22T05:54:32;101814.03;;;13.12
24714;BMP280;12820;51.580;5.010;2024-03-22T05:59:33;101809.81;;;13.12
24714;BMP280;12820;51.580;5.010;2024-03-22T06:04:34;101805.63;;;13.13
24714;BMP280;12820;51.580;5.010;2024-03-22T06:09:35;101794.69;;;13.12
24714;BMP280;12820;51.580;5.010;2024-03-22T06:14:47;101810.63;;;13.14
24714;BMP280;12820;51.580;5.010;2024-03-22T06:19:49;101808.09;;;13.14
24714;BMP280;12820;51.580;5.010;2024-03-22T06:24:51;101812.31;;;13.16
24714;BMP280;12820;51.580;5.010;2024-03-22T06:29:52;101795.44;;;13.21
24714;BMP280;12820;51.580;5.010;2024-03-22T06:34:53;101800.44;;;13.26
24714;BMP280;12820;51.580;5.010;2024-03-22T06:39:54;101807.94;;;13.32
24714;BMP280;12820;51.580;5.010;2024-03-22T06:44:56;101797.81;;;13.36
24714;BMP280;12820;51.580;5.010;2024-03-22T06:49:57;101798.59;;;13.41
24714;BMP280;12820;51.580;5.010;2024-03-22T06:54:59;101794.22;;;13.56
24714;BMP280;12820;51.580;5.010;2024-03-22T07:00:00;101795.81;;;13.64
24714;BMP280;12820;51.580;5.010;2024-03-22T07:05:01;101788.91;;;13.76
24714;BMP280;12820;51.580;5.010;2024-03-22T07:10:03;101784.66;;;13.80
24714;BMP280;12820;51.580;5.010;2024-03-22T07:15:06;101793.84;;;13.89
24714;BMP280;12820;51.580;5.010;2024-03-22T07:20:08;101791.19;;;13.98
24714;BMP280;12820;51.580;5.010;2024-03-22T07:25:09;101783.50;;;14.07
24714;BMP280;12820;51.580;5.010;2024-03-22T07:30:11;101785.00;;;14.20
24714;BMP280;12820;51.580;5.010;2024-03-22T07:35:12;101783.97;;;14.32
24714;BMP280;12820;51.580;5.010;2024-03-22T07:40:14;101788.00;;;14.45
24714;BMP280;12820;51.580;5.010;2024-03-22T07:45:15;101779.41;;;14.55
24714;BMP280;12820;51.580;5.010;2024-03-22T07:50:16;101773.44;;;14.60
24714;BMP280;12820;51.580;5.010;2024-03-22T07:55:18;101777.56;;;14.64
24714;BMP280;12820;51.580;5.010;2024-03-22T08:00:20;101780.88;;;14.69
24714;BMP280;12820;51.580;5.010;2024-03-22T08:05:21;101783.25;;;14.76
24714;BMP280;12820;51.580;5.010;2024-03-22T08:10:23;101793.31;;;14.82
24714;BMP280;12820;51.580;5.010;2024-03-22T08:15:24;101794.13;;;14.84
24714;BMP280;12820;51.580;5.010;2024-03-22T08:20:25;101793.16;;;14.91
24714;BMP280;12820;51.580;5.010;2024-03-22T08:25:27;101801.53;;;14.95
24714;BMP280;12820;51.580;5.010;2024-03-22T08:30:28;101788.84;;;14.97
24714;BMP280;12820;51.580;5.010;2024-03-22T08:35:29;101764.31;;;15.00
24714;BMP280;12820;51.580;5.010;2024-03-22T08:40:30;101756.59;;;15.08
24714;BMP280;12820;51.580;5.010;2024-03-22T08:45:32;101757.31;;;15.14
24714;BMP280;12820;51.580;5.010;2024-03-22T08:50:33;101758.88;;;15.21
24714;BMP280;12820;51.580;5.010;2024-03-22T08:55:35;101757.88;;;15.28
24714;BMP280;12820;51.580;5.010;2024-03-22T09:00:36;101747.69;;;15.32
24714;BMP280;12820;51.580;5.010;2024-03-22T09:05:38;101761.22;;;15.31
24714;BMP280;12820;51.580;5.010;2024-03-22T09:10:40;101759.56;;;15.30
24714;BMP280;12820;51.580;5.010;2024-03-22T09:15:41;101757.84;;;15.32
24714;BMP280;12820;51.580;5.010;2024-03-22T09:20:43;101759.53;;;15.31
24714;BMP280;12820;51.580;5.010;2024-03-22T09:25:45;101740.97;;;15.29
24714;BMP280;12820;51.580;5.010;2024-03-22T09:30:47;101733.38;;;15.29
24714;BMP280;12820;51.580;5.010;2024-03-22T09:35:48;101738.38;;;15.32
24714;BMP280;12820;51.580;5.010;2024-03-22T09:40:49;101728.28;;;15.31
24714;BMP280;12820;51.580;5.010;2024-03-22T09:45:55;101732.50;;;15.32
24714;BMP280;12820;51.580;5.010;2024-03-22T09:50:57;101733.31;;;15.32
24714;BMP280;12820;51.580;5.010;2024-03-22T09:55:59;101724.06;;;15.31
24714;BMP280;12820;51.580;5.010;2024-03-22T10:01:03;101730.00;;;15.30
24714;BMP280;12820;51.580;5.010;2024-03-22T10:06:04;101722.41;;;15.29
24714;BMP280;12820;51.580;5.010;2024-03-22T10:11:06;101730.03;;;15.28
24714;BMP280;12820;51.580;5.010;2024-03-22T10:16:07;101730.03;;;15.28
24714;BMP280;12820;51.580;5.010;2024-03-22T10:21:09;101728.38;;;15.27
24714;BMP280;12820;51.580;5.010;2024-03-22T10:26:10;101743.50;;;15.29
24714;BMP280;12820;51.580;5.010;2024-03-22T10:31:14;101733.50;;;15.24
24714;BMP280;12820;51.580;5.010;2024-03-22T10:36:16;101736.94;;;15.20
24714;BMP280;12820;51.580;5.010;2024-03-22T10:41:17;101737.81;;;15.19
24714;BMP280;12820;51.580;5.010;2024-03-22T10:46:20;101733.66;;;15.15
24714;BMP280;12820;51.580;5.010;2024-03-22T10:51:23;101732.91;;;15.10
24714;BMP280;12820;51.580;5.010;2024-03-22T10:56:25;101727.09;;;15.05
24714;BMP280;12820;51.580;5.010;2024-03-22T11:01:27;101717.94;;;14.98
24714;BMP280;12820;51.580;5.010;2024-03-22T11:06:36;101720.56;;;14.94
24714;BMP280;12820;51.580;5.010;2024-03-22T11:11:37;101722.25;;;14.91
24714;BMP280;12820;51.580;5.010;2024-03-22T11:16:46;101718.97;;;14.86
24714;BMP280;12820;51.580;5.010;2024-03-22T11:21:47;101719.91;;;14.82
24714;BMP280;12820;51.580;5.010;2024-03-22T11:26:48;101709.88;;;14.76
24714;BMP280;12820;51.580;5.010;2024-03-22T11:31:52;101699.91;;;14.67
24714;BMP280;12820;51.580;5.010;2024-03-22T11:36:54;101701.69;;;14.62
24714;BMP280;12820;51.580;5.010;2024-03-22T11:41:56;101701.69;;;14.61
24714;BMP280;12820;51.580;5.010;2024-03-22T11:46:57;101692.47;;;14.58
24714;BMP280;12820;51.580;5.010;2024-03-22T11:51:58;101688.34;;;14.55
24714;BMP280;12820;51.580;5.010;2024-03-22T11:57:00;101671.47;;;14.55
24714;BMP280;12820;51.580;5.010;2024-03-22T12:02:01;101667.25;;;14.56
24714;BMP280;12820;51.580;5.010;2024-03-22T12:07:02;101658.00;;;14.53
24714;BMP280;12820;51.580;5.010;2024-03-22T12:12:04;101654.59;;;14.56
24714;BMP280;12820;51.580;5.010;2024-03-22T12:17:06;101655.34;;;14.60
24714;BMP280;12820;51.580;5.010;2024-03-22T12:22:08;101641.72;;;14.67
24714;BMP280;12820;51.580;5.010;2024-03-22T12:27:09;101632.28;;;14.75
24714;BMP280;12820;51.580;5.010;2024-03-22T12:32:11;101620.22;;;14.89
24714;BMP280;12820;51.580;5.010;2024-03-22T12:37:13;101618.19;;;15.07
24714;BMP280;12820;51.580;5.010;2024-03-22T12:42:14;101629.09;;;15.10
24714;BMP280;12820;51.580;5.010;2024-03-22T12:47:15;101630.75;;;15.11
24714;BMP280;12820;51.580;5.010;2024-03-22T12:52:16;101618.19;;;15.07
24714;BMP280;12820;51.580;5.010;2024-03-22T12:57:17;101620.78;;;15.04
24714;BMP280;12820;51.580;5.010;2024-03-22T13:02:19;101609.75;;;15.06
24714;BMP280;12820;51.580;5.010;2024-03-22T13:07:21;101606.25;;;15.13
24714;BMP280;12820;51.580;5.010;2024-03-22T13:12:22;101611.91;;;15.24
24714;BMP280;12820;51.580;5.010;2024-03-22T13:17:23;101590.06;;;15.20
24714;BMP280;12820;51.580;5.010;2024-03-22T13:22:25;101596.84;;;15.18
24714;BMP280;12820;51.580;5.010;2024-03-22T13:27:26;101579.28;;;15.11
24714;BMP280;12820;51.580;5.010;2024-03-22T13:32:27;101577.69;;;15.07
24714;BMP280;12820;51.580;5.010;2024-03-22T13:37:28;101574.34;;;15.05
24714;BMP280;12820;51.580;5.010;2024-03-22T13:42:30;101568.59;;;14.98
24714;BMP280;12820;51.580;5.010;2024-03-22T13:47:31;101567.84;;;14.93
24714;BMP280;12820;51.580;5.010;2024-03-22T13:52:32;101556.88;;;14.90
24714;BMP280;12820;51.580;5.010;2024-03-22T13:57:33;101558.56;;;14.93
24714;BMP280;12820;51.580;5.010;2024-03-22T14:02:34;101537.56;;;14.88
24714;BMP280;12820;51.580;5.010;2024-03-22T14:07:35;101533.47;;;14.81
24714;BMP280;12820;51.580;5.010;2024-03-22T14:12:45;101529.19;;;14.84
24714;BMP280;12820;51.580;5.010;2024-03-22T14:17:46;101521.44;;;14.93
24714;BMP280;12820;51.580;5.010;2024-03-22T14:22:47;101512.81;;;15.01
24714;BMP280;12820;51.580;5.010;2024-03-22T14:27:49;101506.78;;;15.07
24714;BMP280;12820;51.580;5.010;2024-03-22T14:32:50;101496.63;;;15.08
24714;BMP280;12820;51.580;5.010;2024-03-22T14:37:51;101495.69;;;15.12
24714;BMP280;12820;51.580;5.010;2024-03-22T14:42:54;101488.88;;;15.15
24714;BMP280;12820;51.580;5.010;2024-03-22T14:47:55;101477.13;;;15.13
24714;BMP280;12820;51.580;5.010;2024-03-22T14:52:56;101473.78;;;15.11
24714;BMP280;12820;51.580;5.010;2024-03-22T14:57:58;101500.75;;;15.12
24714;BMP280;12820;51.580;5.010;2024-03-22T15:02:59;101481.63;;;14.99
24714;BMP280;12820;51.580;5.010;2024-03-22T15:08:00;101469.13;;;14.91
24714;BMP280;12820;51.580;5.010;2024-03-22T15:13:01;101453.28;;;14.83
24714;BMP280;12820;51.580;5.010;2024-03-22T15:18:03;101465.19;;;14.79
24714;BMP280;12820;51.580;5.010;2024-03-22T15:23:06;101470.38;;;14.74
24714;BMP280;12820;51.580;5.010;2024-03-22T15:28:08;101453.69;;;14.64
24714;BMP280;12820;51.580;5.010;2024-03-22T15:33:10;101450.47;;;14.57
24714;BMP280;12820;51.580;5.010;2024-03-22T15:38:11;101449.72;;;14.53
24714;BMP280;12820;51.580;5.010;2024-03-22T15:43:14;101448.97;;;14.49
24714;BMP280;12820;51.580;5.010;2024-03-22T15:48:15;101446.56;;;14.42
24714;BMP280;12820;51.580;5.010;2024-03-22T15:53:20;101444.19;;;14.35
24714;BMP280;12820;51.580;5.010;2024-03-22T15:58:21;101437.66;;;14.25
24714;BMP280;12820;51.580;5.010;2024-03-22T16:03:23;101447.84;;;14.21
24714;BMP280;12820;51.580;5.010;2024-03-22T16:08:26;101441.28;;;14.12
24714;BMP280;12820;51.580;5.010;2024-03-22T16:13:27;101443.97;;;14.04
24714;BMP280;12820;51.580;5.010;2024-03-22T16:18:28;101437.38;;;13.95
24714;BMP280;12820;51.580;5.010;2024-03-22T16:23:30;101440.06;;;13.88
24714;BMP280;12820;51.580;5.010;2024-03-22T16:28:31;101429.28;;;13.76
24714;BMP280;12820;51.580;5.010;2024-03-22T16:33:32;101423.53;;;13.69
24714;BMP280;12820;51.580;5.010;2024-03-22T16:38:33;101429.53;;;13.63
24714;BMP280;12820;51.580;5.010;2024-03-22T16:43:34;101427.03;;;13.61
24714;BMP280;12820;51.580;5.010;2024-03-22T16:48:36;101433.81;;;13.58
24714;BMP280;12820;51.580;5.010;2024-03-22T16:53:38;101429.69;;;13.54
24714;BMP280;12820;51.580;5.010;2024-03-22T16:58:39;101423.88;;;13.48
24714;BMP280;12820;51.580;5.010;2024-03-22T17:03:40;101416.50;;;13.37
24714;BMP280;12820;51.580;5.010;2024-03-22T17:08:43;101419.91;;;13.36
24714;BMP280;12820;51.580;5.010;2024-03-22T17:13:44;101417.53;;;13.28
24714;BMP280;12820;51.580;5.010;2024-03-22T17:18:46;101425.13;;;13.23
24714;BMP280;12820;51.580;5.010;2024-03-22T17:23:50;101422.72;;;13.17
24714;BMP280;12820;51.580;5.010;2024-03-22T17:28:51;101421.13;;;13.12
24714;BMP280;12820;51.580;5.010;2024-03-22T17:33:53;101412.00;;;13.04
24714;BMP280;12820;51.580;5.010;2024-03-22T17:38:54;101393.53;;;13.00
24714;BMP280;12820;51.580;5.010;2024-03-22T17:43:57;101413.84;;;12.93
24714;BMP280;12820;51.580;5.010;2024-03-22T17:48:58;101408.88;;;12.89
24714;BMP280;12820;51.580;5.010;2024-03-22T17:53:59;101405.59;;;12.82
24714;BMP280;12820;51.580;5.010;2024-03-22T17:59:03;101408.09;;;12.82
24714;BMP280;12820;51.580;5.010;2024-03-22T18:04:04;101398.09;;;12.77
24714;BMP280;12820;51.580;5.010;2024-03-22T18:09:09;101393.16;;;12.71
24714;BMP280;12820;51.580;5.010;2024-03-22T18:14:11;101384.84;;;12.63
24714;BMP280;12820;51.580;5.010;2024-03-22T18:19:13;101381.50;;;12.60
24714;BMP280;12820;51.580;5.010;2024-03-22T18:24:14;101375.69;;;12.55
24714;BMP280;12820;51.580;5.010;2024-03-22T18:29:16;101372.41;;;12.48
24714;BMP280;12820;51.580;5.010;2024-03-22T18:34:17;101385.88;;;12.47
24714;BMP280;12820;51.580;5.010;2024-03-22T18:39:18;101380.09;;;12.41
24714;BMP280;12820;51.580;5.010;2024-03-22T18:44:20;101380.09;;;12.38
24714;BMP280;12820;51.580;5.010;2024-03-22T18:49:23;101386.03;;;12.37
24714;BMP280;12820;51.580;5.010;2024-03-22T18:54:26;101386.03;;;12.34
24714;BMP280;12820;51.580;5.010;2024-03-22T18:59:28;101376.00;;;12.33
24714;BMP280;12820;51.580;5.010;2024-03-22T19:04:29;101375.19;;;12.31
24714;BMP280;12820;51.580;5.010;2024-03-22T19:09:30;101356.69;;;12.30
24714;BMP280;12820;51.580;5.010;2024-03-22T19:14:32;101342.47;;;12.28
24714;BMP280;12820;51.580;5.010;2024-03-22T19:19:34;101344.16;;;12.26
24714;BMP280;12820;51.580;5.010;2024-03-22T19:24:35;101347.53;;;12.25
24714;BMP280;12820;51.580;5.010;2024-03-22T19:29:36;101342.53;;;12.22
24714;BMP280;12820;51.580;5.010;2024-03-22T19:34:38;101351.84;;;12.19
24714;BMP280;12820;51.580;5.010;2024-03-22T19:39:40;101350.16;;;12.15
24714;BMP280;12820;51.580;5.010;2024-03-22T19:44:41;101337.63;;;12.13
24714;BMP280;12820;51.580;5.010;2024-03-22T19:49:43;101330.97;;;12.07
24714;BMP280;12820;51.580;5.010;2024-03-22T19:54:44;101337.69;;;12.07
24714;BMP280;12820;51.580;5.010;2024-03-22T19:59:46;101328.47;;;12.05
24714;BMP280;12820;51.580;5.010;2024-03-22T20:04:47;101337.75;;;12.00
24714;BMP280;12820;51.580;5.010;2024-03-22T20:09:48;101327.72;;;11.97
24714;BMP280;12820;51.580;5.010;2024-03-22T20:14:50;101317.72;;;11.93
24714;BMP280;12820;51.580;5.010;2024-03-22T20:19:51;101331.16;;;11.92
24714;BMP280;12820;51.580;5.010;2024-03-22T20:24:53;101332.03;;;11.88
24714;BMP280;12820;51.580;5.010;2024-03-22T20:29:54;101320.28;;;11.87
24714;BMP280;12820;51.580;5.010;2024-03-22T20:34:55;101321.19;;;11.83
